TimeMDT,TemperatureF,Dew PointF,Humidity,Sea Level PressureIn,VisibilityMPH,Wind Direction,Wind SpeedMPH,Gust SpeedMPH,PrecipitationIn,Events,Conditions,WindDirDegrees,DateUTC
12:22 AM,59.0,1.4,10,29.96,10.0,WNW,18.4,27.6,N/A,,Clear,300,2012-10-09 06:22:00
12:54 AM,60.1,3.0,10,29.74,10.0,NW,19.6,28.8,N/A,,Clear,310,2012-10-09 06:54:00
1:54 AM,57.0,6.1,13,29.76,10.0,North,10.4,25.3,N/A,,Clear,350,2012-10-09 07:54:00
2:54 AM,57.2,8.6,14,29.96,10.0,NNW,8.1,-,N/A,,Clear,340,2012-10-09 08:54:00
3:54 AM,57.9,12.9,17,29.75,10.0,WNW,15.0,-,N/A,,Clear,300,2012-10-09 09:54:00
4:54 AM,55.0,12.9,19,29.78,10.0,WNW,9.2,-,N/A,,Clear,300,2012-10-09 10:54:00
5:54 AM,45.0,14.0,29,29.85,10.0,North,4.6,-,N/A,,Clear,360,2012-10-09 11:54:00
6:54 AM,41.0,17.1,38,29.91,10.0,North,6.9,-,N/A,,Clear,360,2012-10-09 12:54:00
7:54 AM,48.9,18.0,29,29.93,10.0,NNW,4.6,-,N/A,,Clear,340,2012-10-09 13:54:00
8:54 AM,60.1,19.0,20,29.91,10.0,North,3.5,-,N/A,,Partly Cloudy,360,2012-10-09 14:54:00
9:54 AM,64.0,17.1,16,29.90,10.0,Variable,6.9,-,N/A,,Partly Cloudy,0,2012-10-09 15:54:00
10:54 AM,66.9,16.0,14,29.86,10.0,Variable,4.6,-,N/A,,Partly Cloudy,0,2012-10-09 16:54:00
11:54 AM,64.9,21.0,19,29.82,10.0,ESE,17.3,23.0,N/A,,Partly Cloudy,110,2012-10-09 17:54:00
12:54 PM,63.0,27.0,26,29.83,10.0,East,15.0,-,N/A,,Partly Cloudy,90,2012-10-09 18:54:00
1:54 PM,61.0,28.0,29,29.86,10.0,ESE,13.8,21.9,N/A,,Partly Cloudy,110,2012-10-09 19:54:00
2:54 PM,57.9,30.0,35,29.90,10.0,SE,11.5,19.6,N/A,,Partly Cloudy,140,2012-10-09 20:54:00
3:54 PM,57.0,30.9,37,29.94,10.0,ESE,18.4,21.9,N/A,,Partly Cloudy,120,2012-10-09 21:54:00
4:54 PM,51.1,33.1,50,30.01,10.0,East,15.0,-,N/A,,Partly Cloudy,90,2012-10-09 22:54:00
5:54 PM,45.0,33.1,63,30.11,10.0,East,12.7,-,N/A,,Clear,80,2012-10-09 23:54:00
6:54 PM,41.0,32.0,70,30.19,10.0,East,10.4,-,N/A,,Partly Cloudy,80,2012-10-10 00:54:00
7:43 PM,39.2,32.0,75,30.21,10.0,East,6.9,-,N/A,,Mostly Cloudy,90,2012-10-10 01:43:00
7:54 PM,39.9,32.0,73,30.18,10.0,East,8.1,-,N/A,,Overcast,80,2012-10-10 01:54:00
8:54 PM,41.0,32.0,70,30.15,10.0,South,4.6,-,N/A,,Overcast,170,2012-10-10 02:54:00
9:54 PM,39.0,32.0,76,30.16,10.0,South,9.2,-,N/A,,Overcast,170,2012-10-10 03:54:00
10:54 PM,39.9,32.0,73,30.14,10.0,South,10.4,-,N/A,,Overcast,170,2012-10-10 04:54:00
11:18 PM,39.2,32.0,75,30.26,10.0,SSE,10.4,-,N/A,,Overcast,160,2012-10-10 05:18:00
11:54 PM,39.0,32.0,76,30.15,10.0,SSE,11.5,-,N/A,,Overcast,160,2012-10-10 05:54:00